createdAt,value
2022-10-17T00:01:54.566Z,6.30
2022-10-17T00:04:22.404Z,6.53
2022-10-17T00:06:49.272Z,6.50
2022-10-17T00:09:16.052Z,7.35
2022-10-17T00:11:42.828Z,6.55
2022-10-17T00:14:09.701Z,6.68
2022-10-17T00:16:37.614Z,7.15
2022-10-17T00:19:06.354Z,6.28
2022-10-17T00:21:33.745Z,7.13
2022-10-17T00:24:01.249Z,7.53
2022-10-17T00:26:32.581Z,6.85
2022-10-17T00:28:59.449Z,7.18
2022-10-17T00:31:26.311Z,7.85
2022-10-17T00:33:54.664Z,7.53
2022-10-17T00:36:24.806Z,6.40
2022-10-17T00:38:57.983Z,6.00
2022-10-17T00:41:28.666Z,6.13
2022-10-17T00:43:59.882Z,6.43
2022-10-17T00:46:33.022Z,6.45
2022-10-17T00:49:05.411Z,6.80
2022-10-17T00:51:43.892Z,6.30
2022-10-17T00:54:12.912Z,7.13
2022-10-17T00:56:40.503Z,6.65
2022-10-17T00:59:12.280Z,5.65
2022-10-17T01:01:41.417Z,6.93
2022-10-17T01:04:09.879Z,6.95
2022-10-17T01:06:36.631Z,5.95
2022-10-17T01:09:03.538Z,6.53
2022-10-17T01:11:30.314Z,6.15
2022-10-17T01:14:16.524Z,6.05
2022-10-17T01:17:00.472Z,6.70
2022-10-17T01:19:33.286Z,6.20
2022-10-17T01:22:10.118Z,6.10
2022-10-17T01:25:13.746Z,6.78
2022-10-17T01:28:13.201Z,6.13
2022-10-17T01:30:55.221Z,6.53
2022-10-17T01:33:30.756Z,5.82
2022-10-17T01:36:18.700Z,7.28
2022-10-17T01:38:55.337Z,7.13
2022-10-17T01:41:25.349Z,5.63
2022-10-17T01:44:03.670Z,6.20
2022-10-17T01:46:44.212Z,6.22
2022-10-17T01:49:13.392Z,6.22
2022-10-17T01:51:51.974Z,6.13
2022-10-17T01:54:24.924Z,5.85
2022-10-17T01:56:57.315Z,6.30
2022-10-17T01:59:29.338Z,6.22
2022-10-17T02:01:58.176Z,6.95
2022-10-17T02:04:25.714Z,7.07
2022-10-17T02:06:52.523Z,6.05
2022-10-17T02:09:27.149Z,5.78
2022-10-17T02:12:35.101Z,5.60
2022-10-17T02:15:29.351Z,5.60
2022-10-17T02:18:11.121Z,6.13
2022-10-17T02:20:49.590Z,5.88
2022-10-17T02:23:33.985Z,4.85
2022-10-17T02:26:18.354Z,5.60
2022-10-17T02:28:57.233Z,5.75
2022-10-17T02:31:31.248Z,6.65
2022-10-17T02:34:12.186Z,6.63
2022-10-17T02:36:50.960Z,6.03
2022-10-17T02:39:20.280Z,6.00
2022-10-17T02:41:49.256Z,5.93
2022-10-17T02:44:16.995Z,5.82
2022-10-17T02:46:49.530Z,5.20
2022-10-17T02:49:28.375Z,5.05
2022-10-17T02:52:03.989Z,6.47
2022-10-17T02:55:06.348Z,5.75
2022-10-17T02:57:44.175Z,5.50
2022-10-17T03:00:14.530Z,5.63
2022-10-17T03:02:47.001Z,5.30
2022-10-17T03:05:21.228Z,5.70
2022-10-17T03:07:48.110Z,5.15
2022-10-17T03:10:15.077Z,5.82
2022-10-17T03:12:42.207Z,5.25
2022-10-17T03:15:11.310Z,5.75
2022-10-17T03:17:38.907Z,5.00
2022-10-17T03:20:07.241Z,5.40
2022-10-17T03:22:34.332Z,5.00
2022-10-17T03:25:01.120Z,5.35
2022-10-17T03:27:28.175Z,6.00
2022-10-17T03:29:55.186Z,4.88
2022-10-17T03:32:22.000Z,5.20
2022-10-17T03:34:48.810Z,5.47
2022-10-17T03:37:15.666Z,5.28
2022-10-17T03:39:42.610Z,5.35
2022-10-17T03:42:09.480Z,5.47
2022-10-17T03:44:36.410Z,5.45
2022-10-17T03:47:03.446Z,5.32
2022-10-17T03:49:30.274Z,5.53
2022-10-17T03:51:57.065Z,5.25
2022-10-17T03:54:23.909Z,5.05
2022-10-17T03:56:50.755Z,5.03
2022-10-17T03:59:17.849Z,4.65
2022-10-17T04:01:46.399Z,5.18
2022-10-17T04:04:13.387Z,5.15
2022-10-17T04:06:40.296Z,5.20
2022-10-17T04:09:08.075Z,5.65
2022-10-17T04:11:34.854Z,4.57
2022-10-17T04:14:02.597Z,5.15
2022-10-17T04:16:30.175Z,5.00
2022-10-17T04:19:06.216Z,4.43
2022-10-17T04:21:33.094Z,5.30
2022-10-17T04:24:00.726Z,4.78
2022-10-17T04:26:28.008Z,5.75
2022-10-17T04:28:54.985Z,5.00
2022-10-17T04:31:22.090Z,4.95
2022-10-17T04:33:50.357Z,4.65
2022-10-17T04:36:20.019Z,4.85
2022-10-17T04:38:47.097Z,5.28
2022-10-17T04:41:16.299Z,4.70
2022-10-17T04:43:46.898Z,5.60
2022-10-17T04:46:17.192Z,5.05
2022-10-17T04:48:44.007Z,4.88
2022-10-17T04:51:16.038Z,5.38
2022-10-17T04:53:44.201Z,5.28
2022-10-17T04:56:20.264Z,4.85
2022-10-17T04:58:47.762Z,4.93
2022-10-17T05:01:21.639Z,5.35
2022-10-17T05:03:49.004Z,5.75
2022-10-17T05:06:19.070Z,5.07
2022-10-17T05:08:46.099Z,4.95
2022-10-17T05:11:25.330Z,5.63
2022-10-17T05:14:00.962Z,5.00
2022-10-17T05:16:28.798Z,5.00
2022-10-17T05:18:57.757Z,4.93
2022-10-17T05:21:25.916Z,5.22
2022-10-17T05:23:53.159Z,4.93
2022-10-17T05:26:21.031Z,5.25
2022-10-17T05:28:48.223Z,5.05
2022-10-17T05:31:15.538Z,4.28
2022-10-17T05:33:42.422Z,5.97
2022-10-17T05:36:09.677Z,4.88
2022-10-17T05:38:37.862Z,4.97
2022-10-17T05:41:05.958Z,5.05
2022-10-17T05:43:33.838Z,4.60
2022-10-17T05:46:04.225Z,5.43
2022-10-17T05:48:31.234Z,4.70
2022-10-17T05:51:09.452Z,5.07
2022-10-17T05:53:38.982Z,4.85
2022-10-17T05:56:08.069Z,4.65
2022-10-17T05:58:52.382Z,4.28
2022-10-17T06:01:20.371Z,4.60
2022-10-17T06:03:47.281Z,4.70
2022-10-17T06:06:14.994Z,4.80
2022-10-17T06:08:42.489Z,4.60
2022-10-17T06:11:10.591Z,5.22
2022-10-17T06:13:38.987Z,5.00
2022-10-17T06:16:06.459Z,4.85
2022-10-17T06:18:33.685Z,5.05
2022-10-17T06:21:09.289Z,4.93
2022-10-17T06:23:36.380Z,4.93
2022-10-17T06:26:05.290Z,5.10
2022-10-17T06:28:32.760Z,4.50
2022-10-17T06:30:59.699Z,5.20
2022-10-17T06:33:26.547Z,5.13
2022-10-17T06:35:54.661Z,5.45
2022-10-17T06:38:22.368Z,4.72
2022-10-17T06:40:49.484Z,4.70
2022-10-17T06:43:16.299Z,4.57
2022-10-17T06:45:43.086Z,4.93
2022-10-17T06:48:09.980Z,5.03
2022-10-17T06:50:36.822Z,4.85
2022-10-17T06:53:03.675Z,5.20
2022-10-17T06:55:31.884Z,4.75
2022-10-17T06:57:58.858Z,5.28
2022-10-17T07:00:27.274Z,5.05
2022-10-17T07:02:54.208Z,4.70
2022-10-17T07:05:21.055Z,5.47
2022-10-17T07:07:50.978Z,4.75
2022-10-17T07:10:18.997Z,4.78
2022-10-17T07:12:45.924Z,4.72
2022-10-17T07:15:13.099Z,4.65
2022-10-17T07:17:40.122Z,5.80
2022-10-17T07:20:07.585Z,4.78
2022-10-17T07:22:34.455Z,4.65
2022-10-17T07:25:01.279Z,4.78
2022-10-17T07:27:28.290Z,4.57
2022-10-17T07:29:55.355Z,5.07
2022-10-17T07:32:22.181Z,5.22
2022-10-17T07:34:48.956Z,11.30
2022-10-17T07:37:15.826Z,4.75
2022-10-17T07:39:42.607Z,5.00
2022-10-17T07:42:12.071Z,4.20
2022-10-17T07:44:38.878Z,4.93
2022-10-17T07:47:05.686Z,5.20
2022-10-17T07:49:32.596Z,5.00
2022-10-17T07:51:59.368Z,4.45
2022-10-17T07:54:26.186Z,4.50
2022-10-17T07:56:52.933Z,3.90
2022-10-17T07:59:20.014Z,4.32
2022-10-17T08:01:46.853Z,4.50
2022-10-17T08:04:13.673Z,4.28
2022-10-17T08:06:40.615Z,4.55
2022-10-17T08:09:07.498Z,4.32
2022-10-17T08:11:35.962Z,3.88
2022-10-17T08:14:02.775Z,4.00
2022-10-17T08:16:29.622Z,4.50
2022-10-17T08:18:56.723Z,4.25
2022-10-17T08:21:23.528Z,3.92
2022-10-17T08:23:50.391Z,4.20
2022-10-17T08:26:17.572Z,4.32
2022-10-17T08:28:44.523Z,4.03
2022-10-17T08:31:14.108Z,4.10
2022-10-17T08:33:41.972Z,4.15
2022-10-17T08:36:09.871Z,3.60
2022-10-17T08:38:43.130Z,4.63
2022-10-17T08:41:33.303Z,5.88
2022-10-17T08:44:03.939Z,4.45
2022-10-17T08:46:39.258Z,4.68
2022-10-17T08:49:24.847Z,3.88
2022-10-17T08:52:01.743Z,3.78
2022-10-17T08:54:43.118Z,4.30
2022-10-17T08:57:13.482Z,4.20
2022-10-17T08:59:40.325Z,3.97
2022-10-17T09:02:19.462Z,5.10
2022-10-17T09:04:54.595Z,4.25
2022-10-17T09:07:36.272Z,3.53
2022-10-17T09:10:35.409Z,3.97
2022-10-17T09:13:07.713Z,4.95
2022-10-17T09:15:47.332Z,3.85
2022-10-17T09:18:26.474Z,3.33
2022-10-17T09:20:58.428Z,4.40
2022-10-17T09:23:27.287Z,3.65
2022-10-17T09:26:00.082Z,3.35
2022-10-17T09:28:37.864Z,4.75
2022-10-17T09:31:14.283Z,3.83
2022-10-17T09:33:53.909Z,4.15
2022-10-17T09:36:33.080Z,3.80
2022-10-17T09:39:05.560Z,3.85
2022-10-17T09:41:45.000Z,3.67
2022-10-17T09:44:24.115Z,4.40
2022-10-17T09:47:10.114Z,4.25
2022-10-17T09:49:41.591Z,4.07
2022-10-17T09:52:15.063Z,4.03
2022-10-17T09:54:45.119Z,4.38
2022-10-17T09:57:13.108Z,3.85
2022-10-17T09:59:42.150Z,3.90
2022-10-17T10:02:10.371Z,3.85
2022-10-17T10:04:59.662Z,4.65
2022-10-17T10:07:29.227Z,4.18
2022-10-17T10:09:57.073Z,4.07
2022-10-17T10:12:25.899Z,4.50
2022-10-17T10:14:54.744Z,3.83
2022-10-17T10:17:36.955Z,4.30
2022-10-17T10:20:24.025Z,4.82
2022-10-17T10:23:10.147Z,5.90
2022-10-17T10:25:37.521Z,4.95
2022-10-17T10:28:10.834Z,4.70
2022-10-17T10:30:39.933Z,5.20
2022-10-17T10:33:07.455Z,4.93
2022-10-17T10:35:36.229Z,4.55
2022-10-17T10:38:09.098Z,3.83
2022-10-17T10:40:38.802Z,5.35
2022-10-17T10:43:06.686Z,5.07
2022-10-17T10:45:47.426Z,4.45
2022-10-17T10:48:15.422Z,5.07
2022-10-17T10:51:01.421Z,4.47
2022-10-17T10:53:43.574Z,5.43
2022-10-17T10:56:29.243Z,5.10
2022-10-17T10:58:56.496Z,5.53
2022-10-17T11:01:23.677Z,5.55
2022-10-17T11:04:01.050Z,5.07
2022-10-17T11:06:29.283Z,4.70
2022-10-17T11:09:00.293Z,5.00
2022-10-17T11:11:27.486Z,5.00
2022-10-17T11:13:54.686Z,5.10
2022-10-17T11:16:31.269Z,5.10
2022-10-17T11:19:17.314Z,5.80
2022-10-17T11:21:48.082Z,5.20
2022-10-17T11:24:21.437Z,5.60
2022-10-17T11:27:09.640Z,5.53
2022-10-17T11:29:38.700Z,5.00
2022-10-17T11:32:26.453Z,5.43
2022-10-17T11:34:57.869Z,4.88
2022-10-17T11:37:27.428Z,5.65
2022-10-17T11:39:57.168Z,5.38
2022-10-17T11:42:41.366Z,5.47
2022-10-17T11:45:16.007Z,5.32
2022-10-17T11:47:51.498Z,5.35
2022-10-17T11:53:24.039Z,4.72
2022-10-17T11:55:51.828Z,5.40
2022-10-17T11:58:38.578Z,5.30
2022-10-17T12:01:24.614Z,5.82
2022-10-17T12:04:10.615Z,4.45
2022-10-17T12:07:04.494Z,4.40
2022-10-17T12:09:50.618Z,4.85
2022-10-17T12:12:28.726Z,5.18
2022-10-17T12:15:16.107Z,5.68
2022-10-17T12:17:45.031Z,4.80
2022-10-17T12:20:23.929Z,5.60
2022-10-17T12:22:52.235Z,5.78
2022-10-17T12:25:21.181Z,5.00
2022-10-17T12:27:50.102Z,14.30
2022-10-17T12:30:17.446Z,6.45
2022-10-17T12:33:13.937Z,5.65
2022-10-17T12:35:41.140Z,5.55
2022-10-17T12:38:14.921Z,5.80
2022-10-17T12:40:46.306Z,7.57
2022-10-17T12:43:15.860Z,5.53
2022-10-17T12:45:48.929Z,5.28
2022-10-17T12:48:35.988Z,5.40
2022-10-17T12:54:13.258Z,5.47
2022-10-17T12:56:42.301Z,5.60
2022-10-17T12:59:16.551Z,6.00
2022-10-17T13:01:46.435Z,6.15
2022-10-17T13:04:14.123Z,5.70
2022-10-17T13:06:45.772Z,5.90
2022-10-17T13:09:33.208Z,6.30
2022-10-17T13:12:02.348Z,6.55
2022-10-17T13:14:29.938Z,6.60
2022-10-17T13:17:01.470Z,7.50
2022-10-17T13:19:42.503Z,6.82
2022-10-17T13:22:18.175Z,6.55
2022-10-17T13:24:45.719Z,5.70
2022-10-17T13:27:42.349Z,5.80
2022-10-17T13:30:36.027Z,6.07
2022-10-17T13:33:03.940Z,6.53
2022-10-17T13:35:58.856Z,4.88
2022-10-17T13:38:26.450Z,5.35
2022-10-17T13:41:01.324Z,5.07
2022-10-17T13:43:33.418Z,5.15
2022-10-17T13:46:25.551Z,4.65
2022-10-17T13:48:53.350Z,5.25
2022-10-17T13:51:20.579Z,6.07
2022-10-17T13:53:48.393Z,6.13
2022-10-17T13:56:29.594Z,6.75
2022-10-17T13:59:03.549Z,6.05
2022-10-17T14:01:31.572Z,4.43
2022-10-17T14:04:09.043Z,4.38
2022-10-17T14:06:45.081Z,4.65
2022-10-17T14:09:18.466Z,4.15
2022-10-17T14:11:46.039Z,3.83
2022-10-17T14:14:21.244Z,4.43
2022-10-17T14:16:48.703Z,4.30
2022-10-17T14:19:36.112Z,4.40
2022-10-17T14:22:38.987Z,4.25
2022-10-17T14:25:06.406Z,3.88
2022-10-17T14:27:35.270Z,4.03
2022-10-17T14:30:04.166Z,4.03
2022-10-17T14:35:30.297Z,4.00
2022-10-17T14:37:54.347Z,4.45
2022-10-17T14:40:25.721Z,4.93
2022-10-17T14:42:54.485Z,5.05
2022-10-17T14:45:27.860Z,6.15
2022-10-17T14:47:56.781Z,5.80
2022-10-17T14:50:25.899Z,4.75
2022-10-17T14:52:59.802Z,5.15
2022-10-17T14:55:31.094Z,6.68
2022-10-17T14:57:58.271Z,5.32
2022-10-17T15:00:25.946Z,5.15
2022-10-17T15:02:54.248Z,6.00
2022-10-17T15:05:23.237Z,4.57
2022-10-17T15:07:50.475Z,4.10
2022-10-17T15:10:36.865Z,4.32
2022-10-17T15:15:52.655Z,5.10
2022-10-17T15:18:19.975Z,5.70
2022-10-17T15:20:49.597Z,6.50
2022-10-17T15:23:22.579Z,5.43
2022-10-17T15:25:49.837Z,5.20
2022-10-17T15:28:17.301Z,5.13
2022-10-17T15:30:44.486Z,5.03
2022-10-17T15:33:11.687Z,5.47
2022-10-17T15:35:38.949Z,5.20
2022-10-17T15:38:07.784Z,5.78
2022-10-17T15:40:34.977Z,5.35
2022-10-17T15:43:02.268Z,5.25
2022-10-17T15:45:29.500Z,6.45
2022-10-17T15:47:57.705Z,5.53
2022-10-17T15:50:24.882Z,5.15
2022-10-17T15:52:52.276Z,5.88
2022-10-17T15:55:20.093Z,6.07
2022-10-17T15:57:48.089Z,6.75
2022-10-17T16:00:20.433Z,5.57
2022-10-17T16:02:47.837Z,5.95
2022-10-17T16:05:19.038Z,6.30
2022-10-17T16:07:46.913Z,5.68
2022-10-17T16:10:14.718Z,6.22
2022-10-17T16:12:41.888Z,5.68
2022-10-17T16:15:19.662Z,5.65
2022-10-17T16:17:47.052Z,5.97
2022-10-17T16:20:14.555Z,5.60
2022-10-17T16:22:43.672Z,5.63
2022-10-17T16:25:19.409Z,5.75
2022-10-17T16:27:47.476Z,5.30
2022-10-17T16:30:15.136Z,5.32
2022-10-17T16:32:42.343Z,5.50
2022-10-17T16:35:10.306Z,5.50
2022-10-17T16:37:37.469Z,5.47
2022-10-17T16:40:05.025Z,5.25
2022-10-17T16:42:32.499Z,5.75
2022-10-17T16:45:00.162Z,6.97
2022-10-17T16:47:27.441Z,6.13
2022-10-17T16:49:54.722Z,6.78
2022-10-17T16:52:21.989Z,6.27
2022-10-17T16:54:49.269Z,7.05
2022-10-17T16:57:16.537Z,6.63
2022-10-17T16:59:43.749Z,7.70
2022-10-17T17:02:17.555Z,10.93
2022-10-17T17:04:47.680Z,8.05
2022-10-17T17:07:14.957Z,7.68
2022-10-17T17:09:43.717Z,7.63
2022-10-17T17:12:10.976Z,6.25
2022-10-17T17:14:39.224Z,6.60
2022-10-17T17:17:09.625Z,6.88
2022-10-17T17:19:42.629Z,6.78
2022-10-17T17:22:09.834Z,8.30
2022-10-17T17:24:37.420Z,8.52
2022-10-17T17:27:04.683Z,7.18
2022-10-17T17:29:31.863Z,7.65
2022-10-17T17:31:59.014Z,7.95
2022-10-17T17:34:26.209Z,11.13
2022-10-17T17:36:53.481Z,8.30
2022-10-17T17:39:20.736Z,7.70
2022-10-17T17:41:47.939Z,7.25
2022-10-17T17:44:16.955Z,8.40
2022-10-17T17:46:44.705Z,6.97
2022-10-17T17:49:12.299Z,6.55
2022-10-17T17:51:41.514Z,6.95
2022-10-17T17:54:11.673Z,7.57
2022-10-17T17:56:39.912Z,8.18
2022-10-17T17:59:07.127Z,7.55
2022-10-17T18:01:39.446Z,8.38
2022-10-17T18:04:10.012Z,6.53
2022-10-17T18:06:38.142Z,7.60
2022-10-17T18:09:06.045Z,5.68
2022-10-17T18:11:33.580Z,6.40
2022-10-17T18:14:02.829Z,6.45
2022-10-17T18:16:31.087Z,6.78
2022-10-17T18:19:03.990Z,6.90
2022-10-17T18:21:33.910Z,7.35
2022-10-17T18:24:01.163Z,6.38
2022-10-17T18:26:28.800Z,5.97
2022-10-17T18:28:56.618Z,7.35
2022-10-17T18:31:28.397Z,7.18
2022-10-17T18:33:57.000Z,7.32
2022-10-17T18:36:26.198Z,6.22
2022-10-17T18:38:53.893Z,8.10
2022-10-17T18:41:23.257Z,7.55
2022-10-17T18:43:51.231Z,9.50
2022-10-17T18:46:20.067Z,8.65
2022-10-17T18:48:48.239Z,8.45
2022-10-17T18:51:16.942Z,7.78
2022-10-17T18:53:45.017Z,7.30
2022-10-17T18:56:12.719Z,6.97
2022-10-17T18:58:40.540Z,6.93
2022-10-17T19:01:09.763Z,6.65
2022-10-17T19:03:37.178Z,7.57
2022-10-17T19:06:07.495Z,7.82
2022-10-17T19:08:35.067Z,6.95
2022-10-17T19:11:06.410Z,7.30
2022-10-17T19:13:33.939Z,7.55
2022-10-17T19:16:01.199Z,6.57
2022-10-17T19:18:28.387Z,7.28
2022-10-17T19:20:55.651Z,11.82
2022-10-17T19:23:22.895Z,6.88
2022-10-17T19:25:50.126Z,6.72
2022-10-17T19:28:17.365Z,7.15
2022-10-17T19:30:44.609Z,6.28
2022-10-17T19:33:11.803Z,7.43
2022-10-17T19:35:41.329Z,6.18
2022-10-17T19:38:08.567Z,6.50
2022-10-17T19:40:35.838Z,7.22
2022-10-17T19:43:03.836Z,7.43
2022-10-17T19:45:31.013Z,6.40
2022-10-17T19:47:58.435Z,6.13
2022-10-17T19:50:25.835Z,5.55
2022-10-17T19:52:53.327Z,6.07
2022-10-17T19:55:20.520Z,6.20
2022-10-17T19:57:48.528Z,6.50
2022-10-17T20:00:15.938Z,5.60
2022-10-17T20:02:43.216Z,5.35
2022-10-17T20:05:21.663Z,4.95
2022-10-17T20:07:50.882Z,4.57
2022-10-17T20:10:18.951Z,4.53
2022-10-17T20:12:46.144Z,5.07
2022-10-17T20:15:13.439Z,6.57
2022-10-17T20:17:40.708Z,4.97
2022-10-17T20:20:08.881Z,4.63
2022-10-17T20:22:36.286Z,4.90
2022-10-17T20:25:03.513Z,4.90
2022-10-17T20:27:30.725Z,4.40
2022-10-17T20:30:01.757Z,4.20
2022-10-17T20:32:30.650Z,4.63
2022-10-17T20:34:58.042Z,4.20
2022-10-17T20:37:25.393Z,4.30
2022-10-17T20:40:10.706Z,6.05
2022-10-17T20:42:39.756Z,8.73
2022-10-17T20:45:07.574Z,5.75
2022-10-17T20:47:45.874Z,5.07
2022-10-17T20:50:13.461Z,4.95
2022-10-17T20:52:40.756Z,5.55
2022-10-17T20:55:08.166Z,6.22
2022-10-17T20:57:35.337Z,5.80
2022-10-17T21:00:02.531Z,5.68
2022-10-17T21:02:29.653Z,5.63
2022-10-17T21:04:56.834Z,5.88
2022-10-17T21:07:25.300Z,5.65
2022-10-17T21:09:52.468Z,5.68
2022-10-17T21:12:30.880Z,6.65
2022-10-17T21:15:07.379Z,6.10
2022-10-17T21:17:34.603Z,6.88
2022-10-17T21:20:01.796Z,7.88
2022-10-17T21:22:29.249Z,8.50
2022-10-17T21:24:56.626Z,6.13
2022-10-17T21:27:23.815Z,5.72
2022-10-17T21:29:52.004Z,6.80
2022-10-17T21:32:32.000Z,5.75
2022-10-17T21:35:06.668Z,5.63
2022-10-17T21:37:33.808Z,5.07
2022-10-17T21:40:01.005Z,5.07
2022-10-17T21:42:28.470Z,4.43
2022-10-17T21:44:55.845Z,5.00
2022-10-17T21:47:25.545Z,4.43
2022-10-17T21:49:54.744Z,5.22
2022-10-17T21:52:21.909Z,4.57
2022-10-17T21:54:49.105Z,6.88
2022-10-17T21:59:44.721Z,5.25
2022-10-17T22:02:11.912Z,4.00
2022-10-17T22:04:39.393Z,4.80
2022-10-17T22:07:06.595Z,5.85
2022-10-17T22:09:33.857Z,5.53
2022-10-17T22:12:01.077Z,5.30
2022-10-17T22:14:28.427Z,5.10
2022-10-17T22:16:56.196Z,3.97
2022-10-17T22:19:25.244Z,4.38
2022-10-17T22:21:52.813Z,5.53
2022-10-17T22:26:49.189Z,3.95
2022-10-17T22:29:16.743Z,3.92
2022-10-17T22:31:44.053Z,4.00
2022-10-17T22:34:12.476Z,3.70
2022-10-17T22:36:39.838Z,3.88
2022-10-17T22:39:07.384Z,3.70
2022-10-17T22:41:34.808Z,3.38
2022-10-17T22:44:02.003Z,3.63
2022-10-17T22:46:29.236Z,3.85
2022-10-17T22:48:56.526Z,3.40
2022-10-17T22:53:51.052Z,3.05
2022-10-17T22:56:19.234Z,3.50
2022-10-17T22:58:46.745Z,3.50
2022-10-17T23:01:15.608Z,3.70
2022-10-17T23:03:43.119Z,3.53
2022-10-17T23:06:10.367Z,3.40
2022-10-17T23:08:37.754Z,3.30
2022-10-17T23:11:05.426Z,3.40
2022-10-17T23:13:32.583Z,3.00
2022-10-17T23:15:59.801Z,3.08
2022-10-17T23:18:27.396Z,4.15
2022-10-17T23:20:54.923Z,3.92
2022-10-17T23:23:22.285Z,3.22
2022-10-17T23:25:49.784Z,3.65
2022-10-17T23:28:17.212Z,3.25
2022-10-17T23:30:44.488Z,3.80
2022-10-17T23:33:12.874Z,3.65
2022-10-17T23:35:40.457Z,4.00
2022-10-17T23:38:07.696Z,3.53
2022-10-17T23:40:35.409Z,3.92
2022-10-17T23:43:03.220Z,4.85
2022-10-17T23:45:36.034Z,4.95
2022-10-17T23:48:04.264Z,3.80
2022-10-17T23:50:31.400Z,4.40
2022-10-17T23:52:58.563Z,5.03
2022-10-17T23:55:25.750Z,4.68
2022-10-17T23:57:53.198Z,4.30
